Delavan, Kansas
Current Conditions -  °F | °C
As of 2:58 PM on Thursday 18 Dec 2014 (Local Time) from KFRI Reporting Station
Overcast Overcast  
Wind Chill: 33°   Ceiling: 1100
Heat Index: 33°   Visibility: 10mi
Dew Point: 31°   Wind: 0mph
Humidity: 94%   Direction: NA
Pressure: 30.19"   Gusts: NA
Location:  38.7322°N, 97.0904°W
Report Text: KFRI 182058Z AUTO 00000KT 10SM OVC011 00/00 A3019 RMK AO2 SLP233 P0001 60005 T00041005 56010
Loading
Personal Weather Stations






























Interactive Weather Map New forecast layout! Learn more

10-Day Weather Forecast

Advertisements
Track Severe Weather on mobile